createdAt,value
2018-10-21T00:00:18.814Z,10.00
2018-10-21T00:02:49.380Z,9.90
2018-10-21T00:05:19.546Z,9.90
2018-10-21T00:07:49.437Z,10.20
2018-10-21T00:10:18.000Z,9.00
2018-10-21T00:12:47.327Z,9.60
2018-10-21T00:15:17.465Z,9.40
2018-10-21T00:17:46.956Z,9.30
2018-10-21T00:20:16.330Z,9.60
2018-10-21T00:22:44.883Z,9.40
2018-10-21T00:25:14.638Z,9.40
2018-10-21T00:27:45.110Z,9.40
2018-10-21T00:30:14.143Z,9.30
2018-10-21T00:32:49.323Z,9.40
2018-10-21T00:35:17.994Z,9.40
2018-10-21T00:37:47.031Z,9.40
2018-10-21T00:40:15.621Z,9.50
2018-10-21T00:42:45.503Z,8.90
2018-10-21T00:45:15.090Z,9.40
2018-10-21T00:47:43.753Z,9.40
2018-10-21T00:50:12.735Z,9.30
2018-10-21T00:52:41.222Z,9.50
2018-10-21T00:55:10.844Z,9.40
2018-10-21T00:57:40.486Z,9.20
2018-10-21T01:00:11.693Z,8.60
2018-10-21T01:02:40.288Z,9.00
2018-10-21T01:05:11.210Z,9.00
2018-10-21T01:07:39.952Z,9.40
2018-10-21T01:10:10.906Z,9.30
2018-10-21T01:12:39.944Z,9.30
2018-10-21T01:15:11.545Z,9.20
2018-10-21T01:17:40.426Z,9.40
2018-10-21T01:20:11.463Z,9.30
2018-10-21T01:22:41.602Z,8.70
2018-10-21T01:25:12.096Z,9.20
2018-10-21T01:27:41.972Z,9.10
2018-10-21T01:30:12.986Z,9.20
2018-10-21T01:32:41.574Z,9.20
2018-10-21T01:35:10.324Z,9.10
2018-10-21T01:37:38.803Z,9.40
2018-10-21T01:40:45.752Z,9.10
2018-10-21T01:43:17.903Z,9.10
2018-10-21T01:45:48.605Z,9.40
2018-10-21T01:48:18.331Z,9.00
2018-10-21T01:50:46.825Z,8.80
2018-10-21T01:53:16.183Z,9.10
2018-10-21T01:55:44.722Z,9.20
2018-10-21T01:58:14.648Z,8.80
2018-10-21T02:00:43.909Z,9.10
2018-10-21T02:03:12.984Z,9.70
2018-10-21T02:05:43.623Z,9.30
2018-10-21T02:08:13.882Z,9.10
2018-10-21T02:10:43.222Z,8.80
2018-10-21T02:13:13.677Z,9.00
2018-10-21T02:15:42.186Z,8.60
2018-10-21T02:18:11.213Z,8.90
2018-10-21T02:20:40.730Z,8.90
2018-10-21T02:23:09.184Z,9.20
2018-10-21T02:25:37.901Z,9.40
2018-10-21T02:28:06.514Z,9.10
2018-10-21T02:30:35.956Z,8.40
2018-10-21T02:33:07.706Z,9.00
2018-10-21T02:35:36.973Z,9.10
2018-10-21T02:38:06.373Z,8.60
2018-10-21T02:41:50.189Z,9.10
2018-10-21T02:44:20.594Z,9.20
2018-10-21T02:46:50.543Z,9.10
2018-10-21T02:49:20.141Z,8.90
2018-10-21T02:51:54.658Z,8.70
2018-10-21T02:54:25.272Z,9.00
2018-10-21T02:56:55.776Z,8.90
2018-10-21T02:59:25.059Z,9.20
2018-10-21T03:01:54.150Z,8.90
2018-10-21T03:04:23.054Z,9.10
2018-10-21T03:06:51.762Z,9.10
2018-10-21T03:09:20.459Z,8.60
2018-10-21T03:11:49.505Z,9.30
2018-10-21T03:14:18.003Z,9.20
2018-10-21T03:16:46.487Z,9.30
2018-10-21T03:19:15.069Z,9.40
2018-10-21T03:21:44.053Z,9.00
2018-10-21T03:24:12.783Z,9.00
2018-10-21T03:26:42.272Z,8.80
2018-10-21T03:29:10.808Z,9.00
2018-10-21T03:31:40.615Z,8.30
2018-10-21T03:34:09.758Z,9.10
2018-10-21T03:36:38.192Z,8.70
2018-10-21T03:39:09.213Z,8.90
2018-10-21T03:41:37.810Z,8.40
2018-10-21T03:44:06.945Z,8.90
2018-10-21T03:46:35.971Z,8.80
2018-10-21T03:49:05.023Z,9.10
2018-10-21T03:51:33.496Z,8.90
2018-10-21T03:54:01.931Z,8.90
2018-10-21T03:56:30.464Z,8.90
2018-10-21T03:58:59.946Z,8.70
2018-10-21T04:01:28.357Z,8.80
2018-10-21T04:03:56.969Z,9.00
2018-10-21T04:06:26.066Z,8.80
2018-10-21T04:08:55.219Z,8.70
2018-10-21T04:11:26.486Z,8.70
2018-10-21T04:13:54.941Z,8.70
2018-10-21T04:16:24.141Z,8.80
2018-10-21T04:18:53.547Z,8.80
2018-10-21T04:21:22.515Z,8.70
2018-10-21T04:23:51.563Z,9.00
2018-10-21T04:26:20.775Z,8.90
2018-10-21T04:28:49.144Z,9.00
2018-10-21T04:31:17.476Z,8.90
2018-10-21T04:33:46.950Z,9.10
2018-10-21T04:36:24.351Z,8.40
2018-10-21T04:40:16.881Z,8.40
2018-10-21T04:42:45.867Z,8.90
2018-10-21T04:45:18.432Z,9.20
2018-10-21T04:47:49.103Z,9.20
2018-10-21T04:50:18.405Z,9.00
2018-10-21T04:52:47.794Z,9.20
2018-10-21T04:55:17.348Z,9.80
2018-10-21T04:57:46.999Z,9.90
2018-10-21T05:00:19.123Z,9.90
2018-10-21T05:02:48.378Z,9.90
2018-10-21T05:05:16.991Z,9.80
2018-10-21T05:07:45.665Z,9.50
2018-10-21T05:10:26.571Z,9.50
2018-10-21T05:12:55.190Z,10.50
2018-10-21T05:15:25.036Z,10.60
2018-10-21T05:17:53.738Z,10.50
2018-10-21T05:20:23.543Z,10.30
2018-10-21T05:22:52.623Z,10.40
2018-10-21T05:25:21.049Z,10.30
2018-10-21T05:27:49.628Z,10.70
2018-10-21T05:30:18.201Z,10.80
2018-10-21T05:32:46.784Z,10.60
2018-10-21T05:35:16.237Z,11.10
2018-10-21T05:37:44.897Z,10.20
2018-10-21T05:40:16.020Z,10.90
2018-10-21T05:42:45.578Z,11.00
2018-10-21T05:45:14.083Z,11.10
2018-10-21T05:47:42.700Z,11.10
2018-10-21T05:50:12.316Z,11.00
2018-10-21T05:52:41.248Z,11.30
2018-10-21T05:55:11.232Z,11.20
2018-10-21T05:57:39.878Z,11.00
2018-10-21T06:00:14.869Z,10.70
2018-10-21T06:02:43.457Z,11.20
2018-10-21T06:05:41.434Z,11.20
2018-10-21T06:08:10.976Z,11.20
2018-10-21T06:10:39.976Z,11.00
2018-10-21T06:13:09.310Z,10.80
2018-10-21T06:15:37.995Z,10.80
2018-10-21T06:18:10.673Z,10.80
2018-10-21T06:20:42.989Z,10.90
2018-10-21T06:23:12.034Z,10.10
2018-10-21T06:25:41.083Z,10.50
2018-10-21T06:28:09.645Z,10.30
2018-10-21T06:30:38.865Z,10.60
2018-10-21T06:33:07.227Z,10.00
2018-10-21T06:35:35.855Z,9.60
2018-10-21T06:38:04.961Z,9.60
2018-10-21T06:40:34.512Z,9.80
2018-10-21T06:43:03.040Z,10.00
2018-10-21T06:45:31.575Z,10.00
2018-10-21T06:48:02.015Z,10.00
2018-10-21T06:50:33.424Z,9.90
2018-10-21T06:53:01.882Z,9.90
2018-10-21T06:55:30.307Z,9.80
2018-10-21T06:57:59.851Z,9.90
2018-10-21T07:00:29.080Z,10.00
2018-10-21T07:02:57.653Z,9.90
2018-10-21T07:06:13.954Z,9.40
2018-10-21T07:08:45.582Z,10.50
2018-10-21T07:11:17.452Z,10.00
2018-10-21T07:13:48.075Z,9.90
2018-10-21T07:16:17.232Z,10.00
2018-10-21T07:18:49.972Z,9.80
2018-10-21T07:21:20.315Z,10.10
2018-10-21T07:23:49.017Z,10.30
2018-10-21T07:26:20.135Z,10.30
2018-10-21T07:31:23.012Z,11.00
2018-10-21T07:33:52.329Z,11.10
2018-10-21T07:36:20.816Z,11.40
2018-10-21T07:38:50.262Z,11.60
2018-10-21T07:41:21.138Z,11.80
2018-10-21T07:43:50.219Z,12.00
2018-10-21T07:46:19.479Z,12.40
2018-10-21T07:48:49.059Z,12.60
2018-10-21T07:51:18.328Z,12.80
2018-10-21T07:53:46.773Z,12.40
2018-10-21T07:56:15.277Z,13.40
2018-10-21T07:58:43.740Z,13.20
2018-10-21T08:01:12.286Z,13.30
2018-10-21T08:03:41.033Z,13.90
2018-10-21T08:06:38.273Z,13.90
2018-10-21T08:09:09.245Z,13.50
2018-10-21T08:11:37.691Z,14.70
2018-10-21T08:14:06.064Z,14.70
2018-10-21T08:16:34.568Z,14.90
2018-10-21T08:19:02.865Z,14.90
2018-10-21T08:21:31.188Z,15.00
2018-10-21T08:23:59.690Z,15.00
2018-10-21T08:26:28.018Z,14.90
2018-10-21T08:28:56.584Z,15.50
2018-10-21T08:31:24.984Z,15.40
2018-10-21T08:33:53.340Z,15.10
2018-10-21T08:36:21.612Z,15.60
2018-10-21T08:38:50.424Z,15.60
2018-10-21T08:41:18.681Z,15.40
2018-10-21T08:43:47.213Z,15.60
2018-10-21T08:46:15.742Z,15.90
2018-10-21T08:48:43.988Z,16.20
2018-10-21T08:51:12.415Z,16.30
2018-10-21T08:53:40.674Z,16.10
2018-10-21T08:56:09.010Z,16.00
2018-10-21T08:58:37.612Z,16.60
2018-10-21T09:01:06.034Z,16.50
2018-10-21T09:03:34.465Z,16.70
2018-10-21T09:06:02.831Z,16.60
2018-10-21T09:08:31.370Z,17.00
2018-10-21T09:11:00.012Z,16.20
2018-10-21T09:13:28.803Z,17.30
2018-10-21T09:15:57.460Z,16.40
2018-10-21T09:18:25.992Z,16.70
2018-10-21T09:20:54.763Z,16.40
2018-10-21T09:23:23.503Z,16.40
2018-10-21T09:25:51.954Z,16.70
2018-10-21T09:28:20.554Z,17.20
2018-10-21T09:30:49.132Z,17.10
2018-10-21T09:33:17.683Z,17.60
2018-10-21T09:35:46.230Z,17.50
2018-10-21T09:38:14.849Z,17.90
2018-10-21T09:40:43.573Z,18.10
2018-10-21T09:43:12.387Z,17.60
2018-10-21T09:45:40.971Z,18.50
2018-10-21T09:48:09.559Z,18.40
2018-10-21T09:50:38.343Z,18.40
2018-10-21T09:53:07.460Z,18.20
2018-10-21T09:55:35.975Z,18.60
2018-10-21T09:58:04.803Z,18.60
2018-10-21T10:00:38.905Z,17.80
2018-10-21T10:03:08.560Z,18.10
2018-10-21T10:05:39.677Z,18.10
2018-10-21T10:08:08.540Z,17.90
2018-10-21T10:10:37.202Z,17.80
2018-10-21T10:13:05.900Z,18.60
2018-10-21T10:15:34.568Z,19.00
2018-10-21T10:18:03.135Z,18.50
2018-10-21T10:20:32.723Z,18.50
2018-10-21T10:23:02.359Z,18.60
2018-10-21T10:25:31.853Z,18.70
2018-10-21T10:28:04.039Z,19.00
2018-10-21T10:30:32.761Z,18.30
2018-10-21T10:33:01.531Z,18.80
2018-10-21T10:35:30.144Z,18.90
2018-10-21T10:37:58.972Z,19.30
2018-10-21T10:40:27.562Z,19.50
2018-10-21T10:42:55.970Z,18.50
2018-10-21T10:45:24.919Z,19.10
2018-10-21T10:47:54.897Z,19.20
2018-10-21T10:50:23.549Z,19.00
2018-10-21T10:52:52.650Z,19.10
2018-10-21T10:55:21.293Z,19.20
2018-10-21T10:57:49.969Z,18.70
2018-10-21T11:00:18.966Z,19.40
2018-10-21T11:02:47.602Z,19.90
2018-10-21T11:05:16.226Z,20.20
2018-10-21T11:07:45.099Z,20.20
2018-10-21T11:10:16.155Z,20.60
2018-10-21T11:12:44.721Z,20.20
2018-10-21T11:15:13.298Z,20.80
2018-10-21T11:17:41.836Z,20.70
2018-10-21T11:20:10.980Z,20.80
2018-10-21T11:22:39.632Z,20.80
2018-10-21T11:25:09.235Z,21.00
2018-10-21T11:27:37.767Z,20.60
2018-10-21T11:30:07.003Z,20.20
2018-10-21T11:32:35.565Z,20.20
2018-10-21T11:35:04.776Z,20.10
2018-10-21T11:37:33.595Z,20.60
2018-10-21T11:40:02.007Z,20.70
2018-10-21T11:42:30.430Z,20.80
2018-10-21T11:44:59.175Z,20.90
2018-10-21T11:47:27.815Z,20.20
2018-10-21T11:49:56.626Z,20.70
2018-10-21T11:52:25.431Z,20.90
2018-10-21T11:54:54.003Z,20.50
2018-10-21T11:57:22.876Z,21.40
2018-10-21T11:59:51.548Z,21.10
2018-10-21T12:02:20.138Z,21.40
2018-10-21T12:04:49.332Z,20.90
2018-10-21T12:07:18.867Z,21.40
2018-10-21T12:09:47.377Z,20.70
2018-10-21T12:12:16.513Z,21.10
2018-10-21T12:14:45.370Z,21.20
2018-10-21T12:17:13.950Z,21.20
2018-10-21T12:19:42.668Z,20.90
2018-10-21T12:22:11.906Z,21.10
2018-10-21T12:24:40.510Z,20.90
2018-10-21T12:27:09.217Z,20.90
2018-10-21T12:29:37.735Z,20.70
2018-10-21T12:32:06.405Z,20.90
2018-10-21T12:34:34.867Z,20.70
2018-10-21T12:37:03.376Z,20.10
2018-10-21T12:39:32.120Z,20.80
2018-10-21T12:42:00.936Z,21.00
2018-10-21T12:44:29.712Z,21.30
2018-10-21T12:46:58.439Z,20.90
2018-10-21T12:49:27.932Z,21.10
2018-10-21T12:51:57.406Z,21.00
2018-10-21T12:54:26.209Z,21.00
2018-10-21T12:56:54.791Z,21.50
2018-10-21T12:59:23.523Z,21.60
2018-10-21T13:01:52.452Z,21.70
2018-10-21T13:04:21.081Z,21.90
2018-10-21T13:06:53.727Z,21.70
2018-10-21T13:09:22.938Z,22.00
2018-10-21T13:11:51.855Z,21.60
2018-10-21T13:14:21.347Z,22.10
2018-10-21T13:16:50.056Z,22.20
2018-10-21T13:19:19.429Z,21.80
2018-10-21T13:21:48.113Z,22.40
2018-10-21T13:24:16.744Z,22.80
2018-10-21T13:26:48.224Z,22.90
2018-10-21T13:29:17.336Z,23.10
2018-10-21T13:31:46.471Z,22.70
2018-10-21T13:34:15.061Z,22.90
2018-10-21T13:36:43.596Z,22.40
2018-10-21T13:39:13.995Z,22.50
2018-10-21T13:41:43.777Z,22.10
2018-10-21T13:44:13.755Z,22.50
2018-10-21T13:46:42.550Z,23.00
2018-10-21T13:49:12.180Z,22.80
2018-10-21T13:51:43.140Z,23.00
2018-10-21T13:54:11.924Z,22.80
2018-10-21T13:56:40.608Z,22.90
2018-10-21T13:59:10.336Z,23.10
2018-10-21T14:01:40.203Z,22.90
2018-10-21T14:04:11.725Z,23.30
2018-10-21T14:06:40.362Z,23.00
2018-10-21T14:09:12.128Z,23.00
2018-10-21T14:11:41.202Z,22.80
2018-10-21T14:14:10.834Z,23.00
2018-10-21T14:16:40.281Z,23.50
2018-10-21T14:19:09.291Z,22.90
2018-10-21T14:21:37.825Z,22.60
2018-10-21T14:24:06.754Z,22.60
2018-10-21T14:26:35.359Z,22.90
2018-10-21T14:29:03.873Z,22.40
2018-10-21T14:31:32.369Z,22.50
2018-10-21T14:34:01.263Z,22.70
2018-10-21T14:36:29.765Z,21.50
2018-10-21T14:38:59.026Z,21.80
2018-10-21T14:41:29.666Z,21.30
2018-10-21T14:43:58.228Z,21.90
2018-10-21T14:46:26.782Z,21.70
2018-10-21T14:48:58.409Z,21.30
2018-10-21T14:51:28.372Z,21.40
2018-10-21T14:53:57.002Z,21.20
2018-10-21T14:56:25.897Z,21.00
2018-10-21T14:58:55.330Z,21.00
2018-10-21T15:01:26.484Z,21.00
2018-10-21T15:03:56.258Z,20.70
2018-10-21T15:06:26.625Z,20.30
2018-10-21T15:08:56.694Z,20.70
2018-10-21T15:11:27.327Z,20.20
2018-10-21T15:13:55.887Z,19.80
2018-10-21T15:16:24.599Z,20.00
2018-10-21T15:18:53.350Z,20.20
2018-10-21T15:21:21.977Z,20.20
2018-10-21T15:23:52.031Z,20.50
2018-10-21T15:26:20.796Z,20.20
2018-10-21T15:28:50.888Z,19.80
2018-10-21T15:31:19.566Z,20.50
2018-10-21T15:33:50.103Z,20.80
2018-10-21T15:36:18.820Z,20.40
2018-10-21T15:38:48.503Z,20.60
2018-10-21T15:41:18.662Z,21.00
2018-10-21T15:43:49.290Z,20.10
2018-10-21T15:46:19.444Z,20.50
2018-10-21T15:48:49.148Z,20.80
2018-10-21T15:51:17.780Z,20.40
2018-10-21T15:53:48.282Z,20.30
2018-10-21T15:56:17.167Z,20.50
2018-10-21T15:58:47.671Z,20.00
2018-10-21T16:01:16.738Z,19.80
2018-10-21T16:03:46.746Z,19.80
2018-10-21T16:06:15.503Z,19.90
2018-10-21T16:08:45.044Z,20.00
2018-10-21T16:11:14.661Z,19.90
2018-10-21T16:13:43.344Z,20.10
2018-10-21T16:16:12.583Z,20.00
2018-10-21T16:18:42.175Z,19.90
2018-10-21T16:21:11.040Z,19.50
2018-10-21T16:23:42.389Z,20.00
2018-10-21T16:26:13.132Z,19.30
2018-10-21T16:28:42.411Z,18.90
2018-10-21T16:31:13.277Z,18.90
2018-10-21T16:33:41.965Z,19.50
2018-10-21T16:36:12.708Z,18.70
2018-10-21T16:38:43.219Z,19.60
2018-10-21T16:41:11.860Z,18.80
2018-10-21T16:43:40.452Z,19.30
2018-10-21T16:46:10.156Z,19.00
2018-10-21T16:48:38.740Z,19.30
2018-10-21T16:51:07.840Z,19.30
2018-10-21T16:53:38.980Z,19.00
2018-10-21T16:56:07.605Z,18.90
2018-10-21T16:58:36.141Z,18.70
2018-10-21T17:01:04.835Z,18.40
2018-10-21T17:03:33.055Z,18.70
2018-10-21T17:06:01.391Z,18.60
2018-10-21T17:08:29.948Z,18.70
2018-10-21T17:10:58.443Z,18.60
2018-10-21T17:13:26.854Z,18.10
2018-10-21T17:15:55.445Z,18.40
2018-10-21T17:18:24.957Z,18.00
2018-10-21T17:20:54.703Z,18.50
2018-10-21T17:23:24.177Z,18.10
2018-10-21T17:25:53.641Z,18.20
2018-10-21T17:28:23.853Z,18.20
2018-10-21T17:30:52.664Z,18.40
2018-10-21T17:33:23.233Z,17.80
2018-10-21T17:35:52.895Z,18.20
2018-10-21T17:38:22.750Z,18.00
2018-10-21T17:40:51.346Z,18.00
2018-10-21T17:43:20.136Z,18.10
2018-10-21T17:45:48.806Z,17.90
2018-10-21T17:48:17.734Z,17.90
2018-10-21T17:50:50.028Z,17.70
2018-10-21T17:53:18.686Z,18.00
2018-10-21T17:55:47.604Z,17.20
2018-10-21T17:58:19.472Z,17.90
2018-10-21T18:00:48.130Z,17.70
2018-10-21T18:03:16.905Z,17.80
2018-10-21T18:05:46.952Z,17.50
2018-10-21T18:08:15.616Z,17.70
2018-10-21T18:10:44.160Z,17.50
2018-10-21T18:13:14.787Z,17.20
2018-10-21T18:15:45.180Z,17.40
2018-10-21T18:18:13.786Z,17.50
2018-10-21T18:20:42.681Z,16.70
2018-10-21T18:23:11.399Z,16.80
2018-10-21T18:25:40.729Z,16.40
2018-10-21T18:28:09.325Z,16.30
2018-10-21T18:30:38.158Z,16.30
2018-10-21T18:33:07.035Z,16.20
2018-10-21T18:35:35.433Z,15.80
2018-10-21T18:38:04.231Z,15.80
2018-10-21T18:40:33.804Z,15.50
2018-10-21T18:43:02.783Z,15.20
2018-10-21T18:45:32.890Z,15.90
2018-10-21T18:48:01.419Z,15.50
2018-10-21T18:50:29.946Z,15.40
2018-10-21T18:52:58.726Z,15.40
2018-10-21T18:55:27.546Z,15.20
2018-10-21T18:57:56.142Z,15.10
2018-10-21T19:00:25.134Z,15.00
2018-10-21T19:02:54.095Z,15.20
2018-10-21T19:05:27.078Z,15.20
2018-10-21T19:07:56.416Z,14.70
2018-10-21T19:10:24.925Z,14.60
2018-10-21T19:13:00.056Z,14.50
2018-10-21T19:15:24.117Z,15.00
2018-10-21T19:17:52.849Z,14.90
2018-10-21T19:20:27.178Z,15.10
2018-10-21T19:22:55.864Z,15.40
2018-10-21T19:25:24.473Z,15.20
2018-10-21T19:27:53.250Z,15.40
2018-10-21T19:30:25.337Z,15.50
2018-10-21T19:32:54.005Z,15.60
2018-10-21T19:35:22.895Z,15.60
2018-10-21T19:37:54.043Z,15.10
2018-10-21T19:40:22.773Z,15.50
2018-10-21T19:42:51.491Z,15.90
2018-10-21T19:45:20.869Z,15.30
2018-10-21T19:47:49.579Z,15.90
2018-10-21T19:50:18.476Z,15.80
2018-10-21T19:52:47.288Z,15.30
2018-10-21T19:55:16.278Z,16.30
2018-10-21T19:57:47.372Z,16.10
2018-10-21T20:00:17.395Z,16.40
2018-10-21T20:02:46.288Z,16.10
2018-10-21T20:05:15.749Z,16.00
2018-10-21T20:07:44.307Z,16.10
2018-10-21T20:10:14.017Z,16.30
2018-10-21T20:12:42.765Z,16.20
2018-10-21T20:15:12.003Z,16.20
2018-10-21T20:17:40.861Z,16.10
2018-10-21T20:20:10.280Z,16.00
2018-10-21T20:22:38.862Z,15.90
2018-10-21T20:25:08.756Z,16.70
2018-10-21T20:27:37.336Z,16.00
2018-10-21T20:30:08.397Z,16.50
2018-10-21T20:32:38.609Z,16.40
2018-10-21T20:35:08.792Z,16.40
2018-10-21T20:37:37.164Z,16.30
2018-10-21T20:40:06.938Z,16.20
2018-10-21T20:42:38.380Z,16.40
2018-10-21T20:45:09.056Z,16.30
2018-10-21T20:47:38.244Z,16.50
2018-10-21T20:50:08.065Z,16.50
2018-10-21T20:52:36.579Z,16.20
2018-10-21T20:55:05.897Z,16.50
2018-10-21T20:57:34.360Z,16.50
2018-10-21T21:00:02.781Z,16.40
2018-10-21T21:02:31.090Z,16.30
2018-10-21T21:04:59.607Z,15.70
2018-10-21T21:07:27.942Z,16.10
2018-10-21T21:09:56.345Z,15.70
2018-10-21T21:12:24.835Z,16.20
2018-10-21T21:14:53.385Z,16.30
2018-10-21T21:17:21.735Z,16.00
2018-10-21T21:19:50.413Z,15.60
2018-10-21T21:22:18.904Z,15.60
2018-10-21T21:24:47.226Z,15.90
2018-10-21T21:27:15.744Z,15.70
2018-10-21T21:29:44.210Z,16.00
2018-10-21T21:32:13.220Z,16.20
2018-10-21T21:34:41.772Z,15.60
2018-10-21T21:37:10.104Z,15.70
2018-10-21T21:39:38.459Z,16.20
2018-10-21T21:42:06.969Z,16.00
2018-10-21T21:44:35.282Z,15.60
2018-10-21T21:47:04.851Z,16.00
2018-10-21T21:49:33.334Z,16.50
2018-10-21T21:52:01.731Z,16.30
2018-10-21T21:54:30.214Z,16.20
2018-10-21T21:56:58.608Z,16.20
2018-10-21T21:59:27.014Z,16.50
2018-10-21T22:01:55.521Z,16.20
2018-10-21T22:04:24.136Z,16.20
2018-10-21T22:06:53.002Z,16.30
2018-10-21T22:09:21.443Z,16.10
2018-10-21T22:11:50.392Z,16.00
2018-10-21T22:14:18.700Z,15.30
2018-10-21T22:16:47.022Z,15.20
2018-10-21T22:19:16.656Z,15.80
2018-10-21T22:21:45.046Z,15.70
2018-10-21T22:24:13.443Z,15.60
2018-10-21T22:26:41.931Z,15.80
2018-10-21T22:29:10.413Z,15.40
2018-10-21T22:31:38.881Z,15.00
2018-10-21T22:34:07.270Z,15.50
2018-10-21T22:36:35.718Z,15.70
2018-10-21T22:39:05.734Z,15.80
2018-10-21T22:41:34.105Z,15.90
2018-10-21T22:44:02.467Z,16.20
2018-10-21T22:46:31.251Z,15.70
2018-10-21T22:48:59.628Z,16.00
2018-10-21T22:51:27.982Z,16.00
2018-10-21T22:53:56.411Z,16.10
2018-10-21T22:56:24.901Z,16.20
2018-10-21T22:58:53.396Z,15.70
2018-10-21T23:01:21.884Z,15.70
2018-10-21T23:03:50.247Z,15.40
2018-10-21T23:06:18.642Z,15.60
2018-10-21T23:08:47.064Z,16.20
2018-10-21T23:11:15.599Z,16.00
2018-10-21T23:13:44.307Z,15.90
2018-10-21T23:16:12.804Z,15.20
2018-10-21T23:18:41.223Z,15.70
2018-10-21T23:21:09.817Z,15.80
2018-10-21T23:23:38.551Z,16.00
2018-10-21T23:26:06.895Z,15.50
2018-10-21T23:28:35.266Z,15.60
2018-10-21T23:31:03.779Z,15.40
2018-10-21T23:33:32.163Z,15.20
2018-10-21T23:36:00.535Z,14.80
2018-10-21T23:38:29.145Z,14.60
2018-10-21T23:40:57.563Z,15.20
2018-10-21T23:43:25.966Z,15.20
2018-10-21T23:45:54.488Z,15.30
2018-10-21T23:48:22.843Z,15.30
2018-10-21T23:50:51.247Z,15.30
2018-10-21T23:53:19.787Z,15.40
2018-10-21T23:55:48.270Z,15.30
2018-10-21T23:58:17.741Z,15.60
